createdAt,value
2018-06-19T00:00:00.694Z,0
2018-06-19T00:01:10.874Z,0
2018-06-19T00:02:21.364Z,0
2018-06-19T00:03:31.517Z,0
2018-06-19T00:04:41.772Z,0
2018-06-19T00:05:52.136Z,0
2018-06-19T00:07:02.292Z,0
2018-06-19T00:08:12.472Z,0
2018-06-19T00:09:22.675Z,0
2018-06-19T00:10:33.079Z,0
2018-06-19T00:11:43.215Z,0
2018-06-19T00:12:53.436Z,0
2018-06-19T00:14:03.577Z,0
2018-06-19T00:15:13.769Z,0
2018-06-19T00:16:23.984Z,0
2018-06-19T00:17:34.147Z,0
2018-06-19T00:18:44.348Z,0
2018-06-19T00:19:54.510Z,0
2018-06-19T00:21:04.711Z,0
2018-06-19T00:22:14.886Z,0
2018-06-19T00:23:25.022Z,0
2018-06-19T00:24:35.198Z,0
2018-06-19T00:25:45.368Z,0
2018-06-19T00:26:55.506Z,0
2018-06-19T00:28:05.381Z,0
2018-06-19T00:29:15.777Z,0
2018-06-19T00:30:26.039Z,0
2018-06-19T00:31:36.257Z,0
2018-06-19T00:32:46.496Z,0
2018-06-19T00:33:56.655Z,0
2018-06-19T00:35:07.038Z,0
2018-06-19T00:36:17.210Z,0
2018-06-19T00:37:27.403Z,0
2018-06-19T00:38:37.577Z,0
2018-06-19T00:39:47.817Z,0
2018-06-19T00:40:58.030Z,0
2018-06-19T00:42:08.304Z,0
2018-06-19T00:43:18.279Z,0
2018-06-19T00:44:28.436Z,0
2018-06-19T00:45:38.577Z,0
2018-06-19T00:46:48.729Z,0
2018-06-19T00:47:58.877Z,0
2018-06-19T00:49:08.678Z,0
2018-06-19T00:50:18.929Z,0
2018-06-19T00:51:29.195Z,0
2018-06-19T00:52:39.453Z,0
2018-06-19T00:53:49.608Z,0
2018-06-19T00:54:59.813Z,0
2018-06-19T00:56:10.004Z,0
2018-06-19T00:57:20.213Z,0
2018-06-19T00:58:30.471Z,0
2018-06-19T00:59:40.737Z,0
2018-06-19T01:00:50.904Z,0
2018-06-19T01:02:01.152Z,0
2018-06-19T01:03:11.372Z,0
2018-06-19T01:04:21.628Z,0
2018-06-19T01:05:31.775Z,0
2018-06-19T01:06:41.683Z,0
2018-06-19T01:07:51.859Z,0
2018-06-19T01:09:01.992Z,0
2018-06-19T01:10:11.874Z,0
2018-06-19T01:11:22.030Z,0
2018-06-19T01:12:32.212Z,0
2018-06-19T01:13:42.565Z,0
2018-06-19T01:14:52.698Z,0
2018-06-19T01:16:02.843Z,0
2018-06-19T01:17:12.998Z,0
2018-06-19T01:18:23.257Z,0
2018-06-19T01:19:34.426Z,0
2018-06-19T01:20:44.619Z,0
2018-06-19T01:21:54.517Z,0
2018-06-19T01:23:05.678Z,0
2018-06-19T01:24:15.878Z,0
2018-06-19T01:25:26.017Z,0
2018-06-19T01:26:36.233Z,0
2018-06-19T01:27:46.429Z,0
2018-06-19T01:28:56.572Z,0
2018-06-19T01:30:06.839Z,0
2018-06-19T01:31:16.964Z,0
2018-06-19T01:32:27.105Z,0
2018-06-19T01:33:37.228Z,0
2018-06-19T01:34:47.390Z,0
2018-06-19T01:35:57.540Z,0
2018-06-19T01:37:07.501Z,0
2018-06-19T01:38:18.308Z,0
2018-06-19T01:39:28.329Z,0
2018-06-19T01:40:38.465Z,0
2018-06-19T01:41:48.664Z,0
2018-06-19T01:42:58.875Z,0
2018-06-19T01:44:09.199Z,0
2018-06-19T01:45:19.346Z,0
2018-06-19T01:46:29.508Z,0
2018-06-19T01:47:39.792Z,0
2018-06-19T01:48:49.967Z,0
2018-06-19T01:50:00.143Z,0
2018-06-19T01:51:10.286Z,0
2018-06-19T01:52:20.531Z,0
2018-06-19T01:53:30.669Z,0
2018-06-19T01:54:40.806Z,0
2018-06-19T01:55:50.926Z,0
2018-06-19T01:57:01.267Z,0
2018-06-19T01:58:11.407Z,0
2018-06-19T01:59:21.543Z,0
2018-06-19T02:00:31.769Z,0
2018-06-19T02:01:42.013Z,0
2018-06-19T02:02:52.153Z,0
2018-06-19T02:04:02.349Z,0
2018-06-19T02:05:12.502Z,0
2018-06-19T02:06:22.675Z,0
2018-06-19T02:07:33.050Z,0
2018-06-19T02:08:43.200Z,0
2018-06-19T02:09:53.435Z,0
2018-06-19T02:11:03.571Z,4
2018-06-19T02:12:13.727Z,0
2018-06-19T02:13:23.859Z,0
2018-06-19T02:14:33.994Z,4
2018-06-19T02:15:44.174Z,0
2018-06-19T02:16:54.426Z,4
2018-06-19T02:18:04.542Z,4
2018-06-19T02:19:14.952Z,4
2018-06-19T02:20:25.082Z,8
2018-06-19T02:21:35.348Z,8
2018-06-19T02:22:45.593Z,8
2018-06-19T02:23:55.746Z,12
2018-06-19T02:25:05.629Z,8
2018-06-19T02:26:15.776Z,12
2018-06-19T02:27:25.929Z,16
2018-06-19T02:28:36.127Z,16
2018-06-19T02:29:46.325Z,20
2018-06-19T02:30:56.511Z,24
2018-06-19T02:32:06.666Z,24
2018-06-19T02:33:16.964Z,32
2018-06-19T02:34:26.751Z,32
2018-06-19T02:35:36.920Z,40
2018-06-19T02:36:47.162Z,44
2018-06-19T02:37:57.335Z,44
2018-06-19T02:39:07.667Z,52
2018-06-19T02:40:17.869Z,56
2018-06-19T02:41:28.109Z,64
2018-06-19T02:42:38.313Z,68
2018-06-19T02:43:48.495Z,72
2018-06-19T02:44:58.720Z,76
2018-06-19T02:46:08.915Z,80
2018-06-19T02:47:19.077Z,84
2018-06-19T02:48:29.245Z,96
2018-06-19T02:49:39.423Z,112
2018-06-19T02:50:49.565Z,132
2018-06-19T02:51:59.709Z,152
2018-06-19T02:53:09.833Z,172
2018-06-19T02:54:19.712Z,192
2018-06-19T02:55:29.873Z,208
2018-06-19T02:56:40.007Z,220
2018-06-19T02:57:50.209Z,228
2018-06-19T02:59:00.426Z,220
2018-06-19T03:00:10.594Z,204
2018-06-19T03:01:20.811Z,184
2018-06-19T03:02:31.026Z,184
2018-06-19T03:03:41.184Z,208
2018-06-19T03:04:51.351Z,216
2018-06-19T03:06:01.494Z,228
2018-06-19T03:07:11.629Z,252
2018-06-19T03:08:22.029Z,272
2018-06-19T03:09:32.211Z,296
2018-06-19T03:10:42.350Z,344
2018-06-19T03:11:52.490Z,384
2018-06-19T03:13:02.628Z,436
2018-06-19T03:14:12.921Z,496
2018-06-19T03:15:24.122Z,568
2018-06-19T03:16:33.910Z,620
2018-06-19T03:17:44.050Z,608
2018-06-19T03:18:54.307Z,472
2018-06-19T03:20:04.497Z,348
2018-06-19T03:21:14.683Z,284
2018-06-19T03:22:24.857Z,276
2018-06-19T03:23:35.011Z,308
2018-06-19T03:24:45.348Z,352
2018-06-19T03:25:55.490Z,300
2018-06-19T03:27:05.970Z,264
2018-06-19T03:28:16.183Z,212
2018-06-19T03:29:26.392Z,176
2018-06-19T03:30:36.789Z,168
2018-06-19T03:31:47.037Z,180
2018-06-19T03:32:57.231Z,204
2018-06-19T03:34:07.127Z,248
2018-06-19T03:35:17.375Z,284
2018-06-19T03:36:27.546Z,324
2018-06-19T03:37:37.949Z,484
2018-06-19T03:38:48.077Z,672
2018-06-19T03:39:58.235Z,872
2018-06-19T03:41:08.405Z,964
2018-06-19T03:42:18.545Z,984
2018-06-19T03:43:28.704Z,944
2018-06-19T03:44:38.827Z,948
2018-06-19T03:45:48.998Z,952
2018-06-19T03:46:59.133Z,972
2018-06-19T03:48:08.782Z,1000
2018-06-19T03:49:19.018Z,1044
2018-06-19T03:50:29.206Z,1092
2018-06-19T03:51:39.575Z,1144
2018-06-19T03:52:49.805Z,1204
2018-06-19T03:53:59.953Z,1268
2018-06-19T03:55:10.103Z,1324
2018-06-19T03:56:20.243Z,1364
2018-06-19T03:57:31.027Z,1400
2018-06-19T03:58:41.221Z,1444
2018-06-19T03:59:51.433Z,1496
2018-06-19T04:01:01.581Z,1560
2018-06-19T04:02:11.485Z,1624
2018-06-19T04:03:21.654Z,1664
2018-06-19T04:04:31.926Z,1712
2018-06-19T04:05:42.099Z,1752
2018-06-19T04:06:52.363Z,1784
2018-06-19T04:08:02.305Z,1816
2018-06-19T04:09:12.438Z,1848
2018-06-19T04:10:22.666Z,1868
2018-06-19T04:11:32.870Z,1896
2018-06-19T04:12:42.993Z,1932
2018-06-19T04:13:53.129Z,1944
2018-06-19T04:15:03.405Z,1956
2018-06-19T04:16:13.591Z,1964
2018-06-19T04:17:23.779Z,1980
2018-06-19T04:18:33.933Z,2012
2018-06-19T04:19:44.106Z,2040
2018-06-19T04:20:54.269Z,2064
2018-06-19T04:22:04.469Z,2100
2018-06-19T04:23:14.628Z,2132
2018-06-19T04:24:24.790Z,2152
2018-06-19T04:25:34.952Z,2196
2018-06-19T04:26:45.167Z,2220
2018-06-19T04:27:55.298Z,2240
2018-06-19T04:29:05.512Z,2260
2018-06-19T04:30:15.783Z,2292
2018-06-19T04:31:26.044Z,2332
2018-06-19T04:32:36.220Z,2372
2018-06-19T04:33:46.165Z,2424
2018-06-19T04:34:56.306Z,2468
2018-06-19T04:36:06.496Z,2504
2018-06-19T04:37:16.636Z,2536
2018-06-19T04:38:26.874Z,2564
2018-06-19T04:39:37.056Z,2592
2018-06-19T04:40:47.206Z,2604
2018-06-19T04:41:57.550Z,2616
2018-06-19T04:43:07.754Z,2632
2018-06-19T04:44:17.917Z,2656
2018-06-19T04:45:28.081Z,2676
2018-06-19T04:46:38.012Z,2692
2018-06-19T04:47:48.200Z,2708
2018-06-19T04:48:58.626Z,2744
2018-06-19T04:50:08.760Z,2768
2018-06-19T04:51:18.918Z,2800
2018-06-19T04:52:29.071Z,2828
2018-06-19T04:53:39.265Z,2852
2018-06-19T04:54:49.459Z,2876
2018-06-19T04:55:59.717Z,2912
2018-06-19T04:57:09.986Z,2980
2018-06-19T04:58:20.219Z,3016
2018-06-19T04:59:30.412Z,3008
2018-06-19T05:00:40.310Z,3028
2018-06-19T05:01:50.462Z,3028
2018-06-19T05:03:00.620Z,2968
2018-06-19T05:04:10.869Z,2972
2018-06-19T05:05:21.037Z,2960
2018-06-19T05:06:30.901Z,3000
2018-06-19T05:07:41.057Z,3024
2018-06-19T05:08:51.211Z,3028
2018-06-19T05:10:01.375Z,3060
2018-06-19T05:11:11.540Z,3108
2018-06-19T05:12:21.732Z,3120
2018-06-19T05:13:31.881Z,3132
2018-06-19T05:14:42.014Z,3152
2018-06-19T05:15:52.168Z,3188
2018-06-19T05:17:02.312Z,3208
2018-06-19T05:18:12.071Z,3232
2018-06-19T05:19:22.415Z,3252
2018-06-19T05:20:32.551Z,3268
2018-06-19T05:21:42.805Z,3296
2018-06-19T05:22:52.956Z,3276
2018-06-19T05:24:03.121Z,3332
2018-06-19T05:25:13.320Z,3348
2018-06-19T05:26:23.239Z,3372
2018-06-19T05:27:33.446Z,3376
2018-06-19T05:28:43.619Z,3392
2018-06-19T05:29:53.816Z,3424
2018-06-19T05:31:03.943Z,3424
2018-06-19T05:32:14.091Z,3464
2018-06-19T05:33:24.268Z,3480
2018-06-19T05:34:34.446Z,3492
2018-06-19T05:35:44.601Z,3520
2018-06-19T05:36:54.734Z,3552
2018-06-19T05:38:04.646Z,3548
2018-06-19T05:39:14.888Z,3552
2018-06-19T05:40:25.260Z,3560
2018-06-19T05:41:35.435Z,3644
2018-06-19T05:42:45.577Z,3656
2018-06-19T05:43:55.767Z,3556
2018-06-19T05:45:06.058Z,3616
2018-06-19T05:46:16.581Z,3612
2018-06-19T05:47:26.860Z,3636
2018-06-19T05:48:37.011Z,3656
2018-06-19T05:49:47.172Z,3648
2018-06-19T05:50:57.350Z,3640
2018-06-19T05:52:07.239Z,3676
2018-06-19T05:53:17.379Z,3724
2018-06-19T05:54:27.549Z,3712
2018-06-19T05:55:37.721Z,3688
2018-06-19T05:56:47.906Z,3692
2018-06-19T05:57:58.309Z,3704
2018-06-19T05:59:08.444Z,3680
2018-06-19T06:00:18.958Z,3668
2018-06-19T06:01:29.173Z,3684
2018-06-19T06:02:39.471Z,3720
2018-06-19T06:03:49.690Z,3740
2018-06-19T06:04:59.863Z,3748
2018-06-19T06:06:10.189Z,3740
2018-06-19T06:07:20.427Z,3752
2018-06-19T06:08:30.608Z,3752
2018-06-19T06:09:40.813Z,3776
2018-06-19T06:10:50.981Z,3840
2018-06-19T06:12:01.258Z,3844
2018-06-19T06:13:11.459Z,3844
2018-06-19T06:14:21.618Z,3896
2018-06-19T06:15:31.913Z,3900
2018-06-19T06:16:42.722Z,3904
2018-06-19T06:17:53.256Z,3892
2018-06-19T06:19:03.528Z,3912
2018-06-19T06:20:13.778Z,3940
2018-06-19T06:21:24.205Z,3932
2018-06-19T06:22:34.340Z,3932
2018-06-19T06:23:44.529Z,3932
2018-06-19T06:24:54.688Z,3940
2018-06-19T06:26:04.942Z,3932
2018-06-19T06:27:15.088Z,3936
2018-06-19T06:28:25.298Z,3932
2018-06-19T06:29:35.534Z,3936
2018-06-19T06:30:45.732Z,3928
2018-06-19T06:31:56.012Z,3948
2018-06-19T06:33:05.976Z,3980
2018-06-19T06:34:16.128Z,4008
2018-06-19T06:35:26.289Z,4000
2018-06-19T06:36:36.452Z,4044
2018-06-19T06:37:46.562Z,4072
2018-06-19T06:38:57.560Z,4056
2018-06-19T06:40:07.749Z,4100
2018-06-19T06:41:17.994Z,4128
2018-06-19T06:42:28.121Z,4208
2018-06-19T06:43:39.257Z,4256
2018-06-19T06:44:50.510Z,4352
2018-06-19T06:46:00.828Z,4552
2018-06-19T06:47:10.973Z,4960
2018-06-19T06:48:21.143Z,5556
2018-06-19T06:49:31.291Z,6200
2018-06-19T06:50:41.551Z,7704
2018-06-19T06:51:51.713Z,9600
2018-06-19T06:53:01.863Z,10728
2018-06-19T06:54:12.060Z,12148
2018-06-19T06:55:22.417Z,11964
2018-06-19T06:56:32.576Z,12176
2018-06-19T06:57:42.780Z,12328
2018-06-19T06:58:52.959Z,12592
2018-06-19T07:00:03.319Z,13092
2018-06-19T07:01:13.622Z,13056
2018-06-19T07:02:23.945Z,13456
2018-06-19T07:03:34.109Z,13436
2018-06-19T07:04:44.314Z,13440
2018-06-19T07:05:54.472Z,13736
2018-06-19T07:07:04.692Z,13616
2018-06-19T07:08:14.837Z,13472
2018-06-19T07:09:25.040Z,13296
2018-06-19T07:10:35.431Z,12884
2018-06-19T07:11:45.607Z,12716
2018-06-19T07:12:55.749Z,12888
2018-06-19T07:14:05.932Z,13404
2018-06-19T07:15:16.106Z,13568
2018-06-19T07:16:26.417Z,13396
2018-06-19T07:17:36.578Z,13092
2018-06-19T07:18:46.809Z,12632
2018-06-19T07:19:57.076Z,12016
2018-06-19T07:21:07.265Z,11568
2018-06-19T07:22:17.543Z,11612
2018-06-19T07:23:28.057Z,11748
2018-06-19T07:24:38.368Z,11196
2018-06-19T07:25:48.701Z,10060
2018-06-19T07:26:58.954Z,10192
2018-06-19T07:28:09.249Z,11152
2018-06-19T07:29:19.424Z,12068
2018-06-19T07:30:29.586Z,12696
2018-06-19T07:31:39.840Z,14244
2018-06-19T07:32:49.999Z,15936
2018-06-19T07:34:00.193Z,15808
2018-06-19T07:35:10.355Z,16192
2018-06-19T07:36:20.577Z,15744
2018-06-19T07:37:30.354Z,14848
2018-06-19T07:38:40.559Z,14188
2018-06-19T07:39:50.566Z,14124
2018-06-19T07:41:00.743Z,14496
2018-06-19T07:42:10.915Z,14912
2018-06-19T07:43:21.076Z,14944
2018-06-19T07:44:31.222Z,14976
2018-06-19T07:45:41.434Z,15168
2018-06-19T07:46:51.640Z,15328
2018-06-19T07:48:01.829Z,15776
2018-06-19T07:49:12.012Z,16352
2018-06-19T07:50:22.176Z,16768
2018-06-19T07:51:32.491Z,16992
2018-06-19T07:52:42.665Z,16832
2018-06-19T07:53:52.809Z,16256
2018-06-19T07:55:02.960Z,15904
2018-06-19T07:56:13.157Z,15840
2018-06-19T07:57:23.634Z,15520
2018-06-19T07:58:33.919Z,15360
2018-06-19T07:59:44.105Z,15168
2018-06-19T08:00:54.510Z,14944
2018-06-19T08:02:04.698Z,14592
2018-06-19T08:03:14.879Z,14116
2018-06-19T08:04:25.237Z,14100
2018-06-19T08:05:35.377Z,14216
2018-06-19T08:06:45.580Z,14148
2018-06-19T08:07:55.738Z,14260
2018-06-19T08:09:05.949Z,14912
2018-06-19T08:10:16.106Z,15040
2018-06-19T08:11:26.361Z,15008
2018-06-19T08:12:36.535Z,14976
2018-06-19T08:13:46.745Z,14944
2018-06-19T08:14:56.911Z,15136
2018-06-19T08:16:07.057Z,15328
2018-06-19T08:17:17.220Z,15104
2018-06-19T08:18:27.364Z,14816
2018-06-19T08:19:37.809Z,14400
2018-06-19T08:20:47.739Z,14012
2018-06-19T08:21:57.947Z,13964
2018-06-19T08:23:08.176Z,13764
2018-06-19T08:24:18.382Z,13220
2018-06-19T08:25:28.585Z,12956
2018-06-19T08:26:38.812Z,13412
2018-06-19T08:27:49.009Z,13956
2018-06-19T08:28:59.129Z,14112
2018-06-19T08:30:09.563Z,14496
2018-06-19T08:31:19.717Z,14816
2018-06-19T08:32:29.854Z,14720
2018-06-19T08:33:40.053Z,14560
2018-06-19T08:34:50.303Z,14528
2018-06-19T08:36:00.491Z,13912
2018-06-19T08:37:10.685Z,13724
2018-06-19T08:38:21.136Z,14464
2018-06-19T08:39:31.331Z,15136
2018-06-19T08:40:41.503Z,15392
2018-06-19T08:41:51.849Z,15616
2018-06-19T08:43:02.017Z,16256
2018-06-19T08:44:12.211Z,17696
2018-06-19T08:45:22.403Z,18752
2018-06-19T08:46:32.580Z,19072
2018-06-19T08:47:43.072Z,19552
2018-06-19T08:48:53.226Z,19744
2018-06-19T08:50:03.384Z,19232
2018-06-19T08:51:13.525Z,19264
2018-06-19T08:52:23.684Z,19680
2018-06-19T08:53:33.873Z,19520
2018-06-19T08:54:44.050Z,18848
2018-06-19T08:55:54.251Z,18816
2018-06-19T08:57:04.471Z,19200
2018-06-19T08:58:14.671Z,19456
2018-06-19T08:59:25.061Z,19584
2018-06-19T09:00:35.234Z,20256
2018-06-19T09:01:45.422Z,21024
2018-06-19T09:02:55.377Z,21312
2018-06-19T09:04:05.566Z,20160
2018-06-19T09:05:15.743Z,19072
2018-06-19T09:06:25.619Z,18912
2018-06-19T09:07:35.832Z,19328
2018-06-19T09:08:46.018Z,20128
2018-06-19T09:09:56.181Z,20448
2018-06-19T09:11:06.192Z,19776
2018-06-19T09:12:16.440Z,19424
2018-06-19T09:13:26.747Z,19648
2018-06-19T09:14:37.037Z,19904
2018-06-19T09:15:47.167Z,20160
2018-06-19T09:16:57.339Z,20160
2018-06-19T09:18:07.637Z,20256
2018-06-19T09:19:17.897Z,20480
2018-06-19T09:20:28.071Z,20608
2018-06-19T09:21:38.286Z,20960
2018-06-19T09:22:48.477Z,21088
2018-06-19T09:23:58.654Z,20480
2018-06-19T09:25:08.856Z,20032
2018-06-19T09:26:19.092Z,20448
2018-06-19T09:27:29.408Z,20800
2018-06-19T09:28:39.621Z,20256
2018-06-19T09:29:49.767Z,19360
2018-06-19T09:30:59.980Z,19232
2018-06-19T09:32:10.213Z,19040
2018-06-19T09:33:20.388Z,18944
2018-06-19T09:34:30.586Z,18816
2018-06-19T09:35:40.814Z,18752
2018-06-19T09:36:51.105Z,18912
2018-06-19T09:38:01.044Z,19360
2018-06-19T09:39:11.233Z,19360
2018-06-19T09:40:21.420Z,18688
2018-06-19T09:41:31.553Z,18144
2018-06-19T09:42:41.713Z,17856
2018-06-19T09:43:51.544Z,17728
2018-06-19T09:45:01.768Z,17536
2018-06-19T09:46:11.721Z,17184
2018-06-19T09:47:21.619Z,17216
2018-06-19T09:48:31.844Z,17536
2018-06-19T09:49:42.056Z,18112
2018-06-19T09:50:52.304Z,18304
2018-06-19T09:52:02.492Z,18112
2018-06-19T09:53:12.647Z,17920
2018-06-19T09:54:22.834Z,17696
2018-06-19T09:55:33.030Z,17632
2018-06-19T09:56:43.270Z,17472
2018-06-19T09:57:53.427Z,18048
2018-06-19T09:59:03.869Z,18496
2018-06-19T10:00:14.079Z,20128
2018-06-19T10:01:24.320Z,22240
2018-06-19T10:02:34.594Z,25376
2018-06-19T10:03:44.767Z,22016
2018-06-19T10:04:54.929Z,20032
2018-06-19T10:06:05.135Z,19552
2018-06-19T10:07:15.091Z,21696
2018-06-19T10:08:25.258Z,26432
2018-06-19T10:09:35.437Z,29120
2018-06-19T10:10:45.599Z,27584
2018-06-19T10:11:56.430Z,27808
2018-06-19T10:13:06.706Z,24224
2018-06-19T10:14:16.859Z,23488
2018-06-19T10:15:27.026Z,27360
2018-06-19T10:16:37.164Z,32384
2018-06-19T10:17:47.337Z,40000
2018-06-19T10:18:57.539Z,38688
2018-06-19T10:20:07.479Z,29920
2018-06-19T10:21:17.646Z,37728
2018-06-19T10:22:27.857Z,34272
2018-06-19T10:23:38.216Z,31808
2018-06-19T10:24:48.364Z,23136
2018-06-19T10:25:58.557Z,20096
2018-06-19T10:27:08.706Z,20832
2018-06-19T10:28:18.886Z,22112
2018-06-19T10:29:29.073Z,23296
2018-06-19T10:30:39.397Z,23936
2018-06-19T10:31:49.591Z,20672
2018-06-19T10:32:59.855Z,19744
2018-06-19T10:34:10.035Z,20160
2018-06-19T10:35:20.244Z,19680
2018-06-19T10:36:30.416Z,19392
2018-06-19T10:37:40.697Z,20480
2018-06-19T10:38:50.928Z,23264
2018-06-19T10:40:00.858Z,29952
2018-06-19T10:41:11.024Z,34816
2018-06-19T10:42:21.198Z,34304
2018-06-19T10:43:31.399Z,32000
2018-06-19T10:44:41.583Z,34880
2018-06-19T10:45:51.835Z,39904
2018-06-19T10:47:01.737Z,50464
2018-06-19T10:48:11.782Z,32320
2018-06-19T10:49:22.022Z,29664
2018-06-19T10:50:32.202Z,29344
2018-06-19T10:51:42.373Z,41760
2018-06-19T10:52:52.860Z,34880
2018-06-19T10:54:03.060Z,36288
2018-06-19T10:55:13.239Z,30272
2018-06-19T10:56:23.411Z,28576
2018-06-19T10:57:33.569Z,37472
2018-06-19T10:58:43.472Z,87008
2018-06-19T10:59:53.661Z,58880
2018-06-19T11:01:03.819Z,70208
2018-06-19T11:02:13.999Z,42880
2018-06-19T11:03:23.928Z,35488
2018-06-19T11:04:34.110Z,34240
2018-06-19T11:05:44.268Z,38976
2018-06-19T11:06:54.501Z,41888
2018-06-19T11:08:04.712Z,41408
2018-06-19T11:09:14.977Z,40192
2018-06-19T11:10:25.157Z,38496
2018-06-19T11:11:35.076Z,39584
2018-06-19T11:12:44.910Z,39136
2018-06-19T11:13:54.863Z,32512
2018-06-19T11:15:05.136Z,28288
2018-06-19T11:16:15.382Z,26560
2018-06-19T11:17:25.583Z,28288
2018-06-19T11:18:35.755Z,27168
2018-06-19T11:19:45.914Z,26304
2018-06-19T11:20:56.128Z,27328
2018-06-19T11:22:06.286Z,29152
2018-06-19T11:23:16.468Z,34816
2018-06-19T11:24:26.654Z,37344
2018-06-19T11:25:36.905Z,40096
2018-06-19T11:26:47.105Z,46976
2018-06-19T11:27:57.309Z,40128
2018-06-19T11:29:07.906Z,33824
2018-06-19T11:30:18.432Z,30656
2018-06-19T11:31:28.589Z,30624
2018-06-19T11:32:38.771Z,31904
2018-06-19T11:33:48.937Z,32800
2018-06-19T11:34:59.130Z,33472
2018-06-19T11:36:09.343Z,33280
2018-06-19T11:37:19.591Z,31520
2018-06-19T11:38:29.842Z,29600
2018-06-19T11:39:40.033Z,29760
2018-06-19T11:40:50.248Z,28864
2018-06-19T11:42:00.486Z,32800
2018-06-19T11:43:10.668Z,33408
2018-06-19T11:44:20.926Z,47616
2018-06-19T11:45:31.170Z,39584
2018-06-19T11:46:41.054Z,31296
2018-06-19T11:47:51.240Z,28832
2018-06-19T11:49:01.134Z,24160
2018-06-19T11:50:11.099Z,36416
2018-06-19T11:51:21.433Z,42816
2018-06-19T11:52:31.646Z,50560
2018-06-19T11:53:41.883Z,45856
2018-06-19T11:54:52.073Z,49376
2018-06-19T11:56:02.305Z,46816
2018-06-19T11:57:12.508Z,44864
2018-06-19T11:58:22.683Z,43840
2018-06-19T11:59:32.918Z,61504
2018-06-19T12:00:42.715Z,51104
2018-06-19T12:01:53.138Z,113632
2018-06-19T12:03:03.485Z,78816
2018-06-19T12:04:13.725Z,45824
2018-06-19T12:05:23.947Z,40000
2018-06-19T12:06:34.176Z,39072
2018-06-19T12:07:44.446Z,43456
2018-06-19T12:08:54.608Z,32864
2018-06-19T12:10:04.883Z,21024
2018-06-19T12:11:15.046Z,16544
2018-06-19T12:12:25.266Z,15744
2018-06-19T12:13:35.434Z,17600
2018-06-19T12:14:45.629Z,18592
2018-06-19T12:15:55.831Z,16608
2018-06-19T12:17:06.012Z,13200
2018-06-19T12:18:15.940Z,11232
2018-06-19T12:19:26.149Z,10396
2018-06-19T12:20:36.376Z,11916
2018-06-19T12:21:46.605Z,16640
2018-06-19T12:22:56.568Z,24256
2018-06-19T12:24:06.933Z,29792
2018-06-19T12:25:17.357Z,30944
2018-06-19T12:26:27.549Z,29152
2018-06-19T12:27:37.733Z,35456
2018-06-19T12:28:47.927Z,27936
2018-06-19T12:29:58.124Z,26976
2018-06-19T12:31:08.382Z,32896
2018-06-19T12:32:18.569Z,25920
2018-06-19T12:33:28.777Z,24256
2018-06-19T12:34:38.987Z,20032
2018-06-19T12:35:49.185Z,16096
2018-06-19T12:36:59.188Z,13216
2018-06-19T12:38:09.362Z,13984
2018-06-19T12:39:19.529Z,19104
2018-06-19T12:40:29.685Z,25152
2018-06-19T12:41:40.025Z,22496
2018-06-19T12:42:50.352Z,21536
2018-06-19T12:44:00.545Z,26336
2018-06-19T12:45:10.356Z,27680
2018-06-19T12:46:20.663Z,19520
2018-06-19T12:47:30.926Z,15392
2018-06-19T12:48:41.162Z,12080
2018-06-19T12:49:51.166Z,9880
2018-06-19T12:51:01.414Z,8992
2018-06-19T12:52:11.640Z,9000
2018-06-19T12:53:21.803Z,10448
2018-06-19T12:54:31.992Z,12484
2018-06-19T12:55:42.163Z,16352
2018-06-19T12:56:52.401Z,22656
2018-06-19T12:58:02.564Z,22208
2018-06-19T12:59:12.748Z,24000
2018-06-19T13:00:22.989Z,24992
2018-06-19T13:01:33.177Z,21952
2018-06-19T13:02:43.319Z,19008
2018-06-19T13:03:53.493Z,17184
2018-06-19T13:05:03.741Z,18080
2018-06-19T13:06:14.004Z,22560
2018-06-19T13:07:24.229Z,23104
2018-06-19T13:08:34.522Z,23360
2018-06-19T13:09:44.740Z,22688
2018-06-19T13:10:54.937Z,23904
2018-06-19T13:12:04.866Z,24256
2018-06-19T13:13:15.037Z,23904
2018-06-19T13:14:25.205Z,23552
2018-06-19T13:15:35.377Z,20640
2018-06-19T13:16:45.543Z,17440
2018-06-19T13:17:55.758Z,15104
2018-06-19T13:19:05.967Z,13660
2018-06-19T13:20:16.124Z,12848
2018-06-19T13:21:26.393Z,11992
2018-06-19T13:22:36.586Z,10212
2018-06-19T13:23:47.074Z,8948
2018-06-19T13:24:57.244Z,9328
2018-06-19T13:26:07.432Z,11880
2018-06-19T13:27:17.232Z,15904
2018-06-19T13:28:27.425Z,18880
2018-06-19T13:29:37.593Z,20512
2018-06-19T13:30:47.516Z,21696
2018-06-19T13:31:57.465Z,21888
2018-06-19T13:33:07.392Z,20544
2018-06-19T13:34:17.563Z,19360
2018-06-19T13:35:27.877Z,17824
2018-06-19T13:36:38.144Z,14912
2018-06-19T13:37:48.313Z,13692
2018-06-19T13:38:58.468Z,13312
2018-06-19T13:40:08.555Z,12932
2018-06-19T13:41:18.754Z,12332
2018-06-19T13:42:28.929Z,12008
2018-06-19T13:43:39.185Z,12400
2018-06-19T13:44:49.376Z,13288
2018-06-19T13:45:59.659Z,14204
2018-06-19T13:47:09.822Z,15520
2018-06-19T13:48:20.100Z,16704
2018-06-19T13:49:30.472Z,17344
2018-06-19T13:50:40.738Z,17024
2018-06-19T13:51:50.910Z,16192
2018-06-19T13:53:01.092Z,15360
2018-06-19T13:54:11.304Z,15136
2018-06-19T13:55:21.521Z,13844
2018-06-19T13:56:31.439Z,12668
2018-06-19T13:57:41.611Z,11812
2018-06-19T13:58:51.790Z,11844
2018-06-19T14:00:01.959Z,12744
2018-06-19T14:01:12.160Z,14240
2018-06-19T14:02:22.369Z,15744
2018-06-19T14:03:32.547Z,16576
2018-06-19T14:04:42.759Z,16576
2018-06-19T14:05:53.030Z,16256
2018-06-19T14:07:03.246Z,15552
2018-06-19T14:08:13.868Z,15264
2018-06-19T14:09:24.125Z,15264
2018-06-19T14:10:34.320Z,15744
2018-06-19T14:11:44.521Z,16032
2018-06-19T14:12:54.859Z,14880
2018-06-19T14:14:05.190Z,12760
2018-06-19T14:15:15.344Z,10568
2018-06-19T14:16:25.544Z,10084
2018-06-19T14:17:35.760Z,11320
2018-06-19T14:18:46.050Z,11840
2018-06-19T14:19:56.504Z,11168
2018-06-19T14:21:06.762Z,10352
2018-06-19T14:22:17.015Z,10424
2018-06-19T14:23:27.210Z,11260
2018-06-19T14:24:37.396Z,11756
2018-06-19T14:25:47.684Z,11020
2018-06-19T14:26:57.633Z,11480
2018-06-19T14:28:07.921Z,12052
2018-06-19T14:29:18.071Z,11636
2018-06-19T14:30:28.020Z,11232
2018-06-19T14:31:38.269Z,11524
2018-06-19T14:32:48.546Z,11720
2018-06-19T14:33:58.784Z,12040
2018-06-19T14:35:09.011Z,13000
2018-06-19T14:36:18.984Z,13488
2018-06-19T14:37:29.162Z,14048
2018-06-19T14:38:40.301Z,14268
2018-06-19T14:39:50.211Z,14152
2018-06-19T14:41:00.472Z,13940
2018-06-19T14:42:10.418Z,13476
2018-06-19T14:43:21.575Z,12828
2018-06-19T14:44:31.778Z,11480
2018-06-19T14:45:41.950Z,10668
2018-06-19T14:46:52.363Z,10736
2018-06-19T14:48:02.664Z,11212
2018-06-19T14:49:12.820Z,11660
2018-06-19T14:50:22.773Z,12056
2018-06-19T14:51:32.814Z,12300
2018-06-19T14:52:43.060Z,12352
2018-06-19T14:53:53.267Z,12560
2018-06-19T14:55:03.202Z,16480
2018-06-19T14:56:13.441Z,13096
2018-06-19T14:57:23.764Z,13192
2018-06-19T14:58:33.966Z,12764
2018-06-19T14:59:44.181Z,11972
2018-06-19T15:00:54.356Z,11056
2018-06-19T15:02:04.559Z,10176
2018-06-19T15:03:14.825Z,9824
2018-06-19T15:04:25.059Z,9600
2018-06-19T15:05:35.279Z,9408
2018-06-19T15:06:45.480Z,9212
2018-06-19T15:07:55.401Z,8812
2018-06-19T15:09:05.588Z,8692
2018-06-19T15:10:16.193Z,8828
2018-06-19T15:11:26.636Z,9128
2018-06-19T15:12:36.850Z,9268
2018-06-19T15:13:47.039Z,9500
2018-06-19T15:14:57.264Z,10108
2018-06-19T15:16:07.462Z,10824
2018-06-19T15:17:17.643Z,11256
2018-06-19T15:18:28.006Z,11720
2018-06-19T15:19:37.982Z,12356
2018-06-19T15:20:48.147Z,12828
2018-06-19T15:21:58.400Z,12912
2018-06-19T15:23:08.593Z,13056
2018-06-19T15:24:18.836Z,12996
2018-06-19T15:25:29.075Z,12760
2018-06-19T15:26:39.269Z,12612
2018-06-19T15:27:49.515Z,12392
2018-06-19T15:28:59.840Z,12096
2018-06-19T15:30:10.028Z,11548
2018-06-19T15:31:20.197Z,11036
2018-06-19T15:32:30.373Z,10624
2018-06-19T15:33:40.587Z,10444
2018-06-19T15:34:50.801Z,10360